createdAt,value
2023-03-13T00:00:38.225Z,1001.03
2023-03-13T00:01:38.165Z,1001.07
2023-03-13T00:02:38.164Z,1001.08
2023-03-13T00:03:38.142Z,1001.04
2023-03-13T00:04:38.208Z,1001.11
2023-03-13T00:05:38.167Z,1001.06
2023-03-13T00:06:38.121Z,1001.09
2023-03-13T00:07:38.129Z,1001.06
2023-03-13T00:08:38.081Z,1001.02
2023-03-13T00:09:38.065Z,1001.03
2023-03-13T00:10:38.132Z,1001.05
2023-03-13T00:11:38.054Z,1001.06
2023-03-13T00:12:38.158Z,1001.07
2023-03-13T00:13:38.046Z,1001.06
2023-03-13T00:14:38.032Z,1001.09
2023-03-13T00:15:38.040Z,1001.12
2023-03-13T00:16:38.075Z,1001.07
2023-03-13T00:17:37.994Z,1001.10
2023-03-13T00:18:37.976Z,1001.08
2023-03-13T00:19:37.975Z,1001.09
2023-03-13T00:20:37.994Z,1001.09
2023-03-13T00:21:37.982Z,1001.10
2023-03-13T00:22:37.934Z,1001.11
2023-03-13T00:23:37.932Z,1001.10
2023-03-13T00:24:37.915Z,1001.12
2023-03-13T00:25:37.931Z,1001.12
2023-03-13T00:26:37.868Z,1001.11
2023-03-13T00:27:37.866Z,1001.08
2023-03-13T00:28:37.859Z,1001.08
2023-03-13T00:29:37.857Z,1001.06
2023-03-13T00:30:37.933Z,1001.07
2023-03-13T00:31:37.840Z,1001.07
2023-03-13T00:32:37.880Z,1001.07
2023-03-13T00:33:37.802Z,1001.06
2023-03-13T00:34:37.787Z,1001.09
2023-03-13T00:35:37.872Z,1001.06
2023-03-13T00:36:37.763Z,1001.06
2023-03-13T00:37:37.762Z,1001.06
2023-03-13T00:38:37.741Z,1001.06
2023-03-13T00:39:37.734Z,1001.04
2023-03-13T00:40:37.756Z,1001.03
2023-03-13T00:41:37.734Z,1001.10
2023-03-13T00:42:37.727Z,1001.12
2023-03-13T00:43:37.720Z,1001.08
2023-03-13T00:44:37.684Z,1001.05
2023-03-13T00:45:37.828Z,1001.08
2023-03-13T00:46:37.699Z,1001.09
2023-03-13T00:47:37.685Z,1001.07
2023-03-13T00:48:37.634Z,1001.05
2023-03-13T00:49:37.631Z,1001.04
2023-03-13T00:50:37.655Z,1001.00
2023-03-13T00:51:37.615Z,1001.00
2023-03-13T00:52:37.591Z,1001.01
2023-03-13T00:53:37.590Z,1000.99
2023-03-13T00:54:37.562Z,1000.99
2023-03-13T00:55:37.593Z,1001.03
2023-03-13T00:56:37.525Z,1001.00
2023-03-13T00:57:37.520Z,1001.03
2023-03-13T00:58:37.571Z,1000.99
2023-03-13T00:59:37.512Z,1001.00
2023-03-13T01:00:37.544Z,1000.94
2023-03-13T01:01:37.502Z,1000.93
2023-03-13T01:02:37.618Z,1000.89
2023-03-13T01:03:37.492Z,1000.87
2023-03-13T01:04:37.446Z,1000.83
2023-03-13T01:05:37.483Z,1000.79
2023-03-13T01:06:37.444Z,1000.76
2023-03-13T01:07:37.409Z,1000.73
2023-03-13T01:08:37.411Z,1000.65
2023-03-13T01:09:37.394Z,1000.73
2023-03-13T01:10:37.435Z,1000.72
2023-03-13T01:11:37.391Z,1000.69
2023-03-13T01:12:37.382Z,1000.69
2023-03-13T01:13:37.363Z,1000.70
2023-03-13T01:14:37.350Z,1000.74
2023-03-13T01:15:37.414Z,1000.78
2023-03-13T01:16:37.308Z,1000.81
2023-03-13T01:17:37.358Z,1000.78
2023-03-13T01:18:37.299Z,1000.73
2023-03-13T01:19:37.289Z,1000.77
2023-03-13T01:20:37.306Z,1000.70
2023-03-13T01:21:37.256Z,1000.68
2023-03-13T01:22:37.259Z,1000.63
2023-03-13T01:27:50.738Z,1000.69
2023-03-13T01:28:50.727Z,1000.63
2023-03-13T01:29:50.690Z,1000.71
2023-03-13T01:30:50.729Z,1000.62
2023-03-13T01:31:50.702Z,1000.71
2023-03-13T01:32:50.739Z,1000.64
2023-03-13T01:33:50.643Z,1000.60
2023-03-13T01:34:50.673Z,1000.58
2023-03-13T01:35:50.678Z,1000.54
2023-03-13T01:36:50.664Z,1000.55
2023-03-13T01:37:50.607Z,1000.52
2023-03-13T01:38:50.602Z,1000.53
2023-03-13T01:39:50.595Z,1000.50
2023-03-13T01:40:50.559Z,1000.53
2023-03-13T01:41:50.620Z,1000.57
2023-03-13T01:42:50.625Z,1000.55
2023-03-13T01:43:50.543Z,1000.53
2023-03-13T01:44:50.536Z,1000.46
2023-03-13T01:45:50.508Z,1000.46
2023-03-13T01:46:50.530Z,1000.37
2023-03-13T01:47:50.539Z,1000.41
2023-03-13T01:48:50.491Z,1000.37
2023-03-13T01:49:50.484Z,1000.38
2023-03-13T01:50:50.468Z,1000.39
2023-03-13T01:51:50.456Z,1000.36
2023-03-13T01:52:50.481Z,1000.34
2023-03-13T01:53:50.433Z,1000.30
2023-03-13T01:54:50.412Z,1000.33
2023-03-13T01:55:50.411Z,1000.23
2023-03-13T01:56:50.407Z,1000.26
2023-03-13T01:57:50.426Z,1000.27
2023-03-13T01:58:50.388Z,1000.27
2023-03-13T01:59:50.347Z,1000.33
2023-03-13T02:00:50.353Z,1000.32
2023-03-13T02:01:50.356Z,1000.35
2023-03-13T02:02:50.399Z,1000.33
2023-03-13T02:03:50.307Z,1000.28
2023-03-13T02:04:50.297Z,1000.27
2023-03-13T02:05:50.296Z,1000.29
2023-03-13T02:06:50.271Z,1000.29
2023-03-13T02:07:50.285Z,1000.26
2023-03-13T02:08:50.255Z,1000.25
2023-03-13T02:09:50.229Z,1000.28
2023-03-13T02:10:50.243Z,1000.22
2023-03-13T02:11:50.217Z,1000.18
2023-03-13T02:12:50.240Z,1000.20
2023-03-13T02:13:50.180Z,1000.20
2023-03-13T02:14:50.185Z,1000.17
2023-03-13T02:15:50.269Z,1000.15
2023-03-13T02:16:50.149Z,1000.14
2023-03-13T02:17:50.167Z,1000.15
2023-03-13T02:18:50.125Z,1000.06
2023-03-13T02:19:50.140Z,1000.06
2023-03-13T02:20:50.109Z,1000.04
2023-03-13T02:21:50.090Z,1000.05
2023-03-13T02:22:50.123Z,1000.03
2023-03-13T02:23:50.067Z,1000.02
2023-03-13T02:24:50.056Z,999.99
2023-03-13T02:25:50.103Z,1000.03
2023-03-13T02:26:50.058Z,999.99
2023-03-13T02:27:50.073Z,999.91
2023-03-13T02:28:50.016Z,999.94
2023-03-13T02:29:50.016Z,999.91
2023-03-13T02:30:49.993Z,999.93
2023-03-13T02:31:50.181Z,999.88
2023-03-13T02:32:50.061Z,999.89
2023-03-13T02:33:49.974Z,999.91
2023-03-13T02:34:49.979Z,999.88
2023-03-13T02:35:49.972Z,999.83
2023-03-13T02:36:49.925Z,999.86
2023-03-13T02:37:49.948Z,999.78
2023-03-13T02:38:49.918Z,999.78
2023-03-13T02:39:49.882Z,999.83
2023-03-13T02:40:49.867Z,999.84
2023-03-13T02:41:49.861Z,999.86
2023-03-13T02:42:49.903Z,999.89
2023-03-13T02:43:49.842Z,999.85
2023-03-13T02:44:49.850Z,999.80
2023-03-13T02:45:49.812Z,999.88
2023-03-13T02:46:49.988Z,999.87
2023-03-13T02:47:49.840Z,999.88
2023-03-13T02:48:49.770Z,999.87
2023-03-13T02:49:49.763Z,999.90
2023-03-13T02:50:49.756Z,999.88
2023-03-13T02:51:49.737Z,999.89
2023-03-13T02:52:49.883Z,999.85
2023-03-13T02:53:49.730Z,999.86
2023-03-13T02:54:49.710Z,999.83
2023-03-13T02:55:49.701Z,999.87
2023-03-13T02:56:49.708Z,999.83
2023-03-13T02:57:49.719Z,999.83
2023-03-13T02:58:50.652Z,999.82
2023-03-13T02:59:49.667Z,999.79
2023-03-13T03:00:49.738Z,999.79
2023-03-13T03:01:49.632Z,999.78
2023-03-13T03:02:49.663Z,999.82
2023-03-13T03:03:49.739Z,999.77
2023-03-13T03:04:49.606Z,999.77
2023-03-13T03:05:49.598Z,999.76
2023-03-13T03:06:49.577Z,999.78
2023-03-13T03:07:49.588Z,999.73
2023-03-13T03:08:49.599Z,999.73
2023-03-13T03:09:49.559Z,999.76
2023-03-13T03:10:49.537Z,999.75
2023-03-13T03:11:49.508Z,999.74
2023-03-13T03:12:49.520Z,999.70
2023-03-13T03:13:49.555Z,999.74
2023-03-13T03:14:49.496Z,999.69
2023-03-13T03:15:49.463Z,999.70
2023-03-13T03:16:49.510Z,999.69
2023-03-13T03:17:49.487Z,999.68
2023-03-13T03:18:49.473Z,999.66
2023-03-13T03:19:49.422Z,999.70
2023-03-13T03:20:49.434Z,999.68
2023-03-13T03:21:49.399Z,999.65
2023-03-13T03:22:49.384Z,999.67
2023-03-13T03:23:49.411Z,999.70
2023-03-13T03:24:49.356Z,999.66
2023-03-13T03:25:49.351Z,999.61
2023-03-13T03:26:49.344Z,999.61
2023-03-13T03:27:49.341Z,999.62
2023-03-13T03:28:49.348Z,999.54
2023-03-13T03:29:49.302Z,999.60
2023-03-13T03:30:49.291Z,999.56
2023-03-13T03:31:49.320Z,999.55
2023-03-13T03:32:49.334Z,999.54
2023-03-13T03:33:49.293Z,999.51
2023-03-13T03:34:49.256Z,999.53
2023-03-13T03:35:49.295Z,999.49
2023-03-13T03:36:49.248Z,999.44
2023-03-13T03:37:49.220Z,999.48
2023-03-13T03:38:49.262Z,999.48
2023-03-13T03:39:49.204Z,999.49
2023-03-13T03:40:49.167Z,999.46
2023-03-13T03:41:49.165Z,999.44
2023-03-13T03:42:49.149Z,999.51
2023-03-13T03:43:49.174Z,999.45
2023-03-13T03:44:49.137Z,999.47
2023-03-13T03:45:49.146Z,999.48
2023-03-13T03:46:49.183Z,999.42
2023-03-13T03:47:49.088Z,999.38
2023-03-13T03:48:49.107Z,999.30
2023-03-13T03:49:49.086Z,999.37
2023-03-13T03:50:49.058Z,999.39
2023-03-13T03:51:49.066Z,999.32
2023-03-13T03:52:49.024Z,999.27
2023-03-13T03:53:49.054Z,999.28
2023-03-13T03:54:49.011Z,999.28
2023-03-13T03:55:49.007Z,999.31
2023-03-13T03:56:48.995Z,999.27
2023-03-13T03:57:48.979Z,999.21
2023-03-13T03:58:48.970Z,999.26
2023-03-13T03:59:49.016Z,999.22
2023-03-13T04:00:48.960Z,999.20
2023-03-13T04:01:48.987Z,999.14
2023-03-13T04:02:48.955Z,999.19
2023-03-13T04:03:49.004Z,999.18
2023-03-13T04:04:48.937Z,999.24
2023-03-13T04:05:48.895Z,999.17
2023-03-13T04:06:48.867Z,999.20
2023-03-13T04:07:48.866Z,999.15
2023-03-13T04:08:48.843Z,999.13
2023-03-13T04:09:48.870Z,999.12
2023-03-13T04:10:48.824Z,999.12
2023-03-13T04:11:48.845Z,999.12
2023-03-13T04:12:48.796Z,999.09
2023-03-13T04:13:48.799Z,999.03
2023-03-13T04:14:48.837Z,999.00
2023-03-13T04:15:48.806Z,998.96
2023-03-13T04:16:48.855Z,998.91
2023-03-13T04:17:48.753Z,998.97
2023-03-13T04:18:48.732Z,998.98
2023-03-13T04:19:48.777Z,998.95
2023-03-13T04:20:48.717Z,998.90
2023-03-13T04:21:48.712Z,998.82
2023-03-13T04:22:48.697Z,998.83
2023-03-13T04:23:48.710Z,998.81
2023-03-13T04:24:48.699Z,998.77
2023-03-13T04:25:48.663Z,998.72
2023-03-13T04:26:48.647Z,998.71
2023-03-13T04:27:48.637Z,998.72
2023-03-13T04:28:48.624Z,998.72
2023-03-13T04:29:48.651Z,998.68
2023-03-13T04:30:48.660Z,998.68
2023-03-13T04:31:48.594Z,998.69
2023-03-13T04:32:48.609Z,998.66
2023-03-13T04:33:48.579Z,998.64
2023-03-13T04:34:48.587Z,998.62
2023-03-13T04:35:48.599Z,998.60
2023-03-13T04:36:48.536Z,998.61
2023-03-13T04:37:48.525Z,998.56
2023-03-13T04:38:48.513Z,998.54
2023-03-13T04:39:48.528Z,998.44
2023-03-13T04:40:48.503Z,998.41
2023-03-13T04:41:48.482Z,998.41
2023-03-13T04:42:48.474Z,998.43
2023-03-13T04:43:48.457Z,998.41
2023-03-13T04:44:48.486Z,998.40
2023-03-13T04:45:48.465Z,998.39
2023-03-13T04:46:48.426Z,998.35
2023-03-13T04:47:48.465Z,998.33
2023-03-13T04:48:48.404Z,998.29
2023-03-13T04:49:48.434Z,998.24
2023-03-13T04:50:48.389Z,998.23
2023-03-13T04:51:48.368Z,998.18
2023-03-13T04:52:49.645Z,998.20
2023-03-13T04:53:48.362Z,998.18
2023-03-13T04:54:48.395Z,998.19
2023-03-13T04:55:48.317Z,998.18
2023-03-13T04:56:48.296Z,998.13
2023-03-13T04:57:48.305Z,998.11
2023-03-13T04:58:48.283Z,998.14
2023-03-13T04:59:48.282Z,998.11
2023-03-13T05:00:48.280Z,998.02
2023-03-13T05:01:48.258Z,998.05
2023-03-13T05:02:48.248Z,998.00
2023-03-13T05:03:48.357Z,998.00
2023-03-13T05:04:49.691Z,997.96
2023-03-13T05:05:48.379Z,997.95
2023-03-13T05:06:48.196Z,997.93
2023-03-13T05:07:48.191Z,997.90
2023-03-13T05:08:48.165Z,997.87
2023-03-13T05:09:48.154Z,997.88
2023-03-13T05:10:48.196Z,997.82
2023-03-13T05:11:48.144Z,997.86
2023-03-13T05:12:48.116Z,997.83
2023-03-13T05:13:48.248Z,997.81
2023-03-13T05:14:48.127Z,997.79
2023-03-13T05:15:48.187Z,997.80
2023-03-13T05:16:48.084Z,997.79
2023-03-13T05:17:48.112Z,997.76
2023-03-13T05:18:48.057Z,997.76
2023-03-13T05:19:48.051Z,997.75
2023-03-13T05:20:48.061Z,997.75
2023-03-13T05:21:48.019Z,997.73
2023-03-13T05:22:48.009Z,997.74
2023-03-13T05:23:48.004Z,997.69
2023-03-13T05:24:47.992Z,997.67
2023-03-13T05:25:48.015Z,997.75
2023-03-13T05:26:47.978Z,997.70
2023-03-13T05:27:47.969Z,997.71
2023-03-13T05:28:47.941Z,997.69
2023-03-13T05:29:48.058Z,997.71
2023-03-13T05:30:48.019Z,997.67
2023-03-13T05:31:47.905Z,997.62
2023-03-13T05:32:47.928Z,997.67
2023-03-13T05:33:47.883Z,997.65
2023-03-13T05:34:47.863Z,997.66
2023-03-13T05:35:47.917Z,997.68
2023-03-13T05:36:47.856Z,997.63
2023-03-13T05:37:47.853Z,997.60
2023-03-13T05:38:47.819Z,997.57
2023-03-13T05:39:47.831Z,997.57
2023-03-13T05:40:47.847Z,997.55
2023-03-13T05:41:47.801Z,997.59
2023-03-13T05:42:47.780Z,997.51
2023-03-13T05:43:47.778Z,997.51
2023-03-13T05:44:47.755Z,997.53
2023-03-13T05:45:47.790Z,997.51
2023-03-13T05:46:47.798Z,997.48
2023-03-13T05:47:47.753Z,997.43
2023-03-13T05:48:47.715Z,997.45
2023-03-13T05:49:47.712Z,997.45
2023-03-13T05:50:47.723Z,997.39
2023-03-13T05:51:47.688Z,997.37
2023-03-13T05:52:47.670Z,997.32
2023-03-13T05:53:47.668Z,997.30
2023-03-13T05:54:47.654Z,997.26
2023-03-13T05:55:47.683Z,997.20
2023-03-13T05:56:47.631Z,997.20
2023-03-13T05:57:47.638Z,997.20
2023-03-13T05:58:47.603Z,997.20
2023-03-13T05:59:47.612Z,997.15
2023-03-13T06:00:47.632Z,997.19
2023-03-13T06:01:47.567Z,997.17
2023-03-13T06:02:47.568Z,997.16
2023-03-13T06:03:47.698Z,997.15
2023-03-13T06:04:47.619Z,997.14
2023-03-13T06:05:47.572Z,997.12
2023-03-13T06:06:47.512Z,997.16
2023-03-13T06:07:47.516Z,997.15
2023-03-13T06:08:47.493Z,997.14
2023-03-13T06:09:47.501Z,997.10
2023-03-13T06:10:47.518Z,997.10
2023-03-13T06:11:47.474Z,997.04
2023-03-13T06:12:47.443Z,997.06
2023-03-13T06:13:47.439Z,996.98
2023-03-13T06:14:47.454Z,997.03
2023-03-13T06:15:47.532Z,996.96
2023-03-13T06:16:47.400Z,996.93
2023-03-13T06:17:47.387Z,996.92
2023-03-13T06:18:47.381Z,996.89
2023-03-13T06:19:47.385Z,996.89
2023-03-13T06:20:47.371Z,996.89
2023-03-13T06:21:47.342Z,996.83
2023-03-13T06:22:47.330Z,996.82
2023-03-13T06:23:47.324Z,996.78
2023-03-13T06:24:47.307Z,996.74
2023-03-13T06:25:47.329Z,996.78
2023-03-13T06:26:49.564Z,996.72
2023-03-13T06:27:47.275Z,996.68
2023-03-13T06:28:47.268Z,996.66
2023-03-13T06:29:47.259Z,996.69
2023-03-13T06:30:47.259Z,996.63
2023-03-13T06:31:47.444Z,996.65
2023-03-13T06:32:47.435Z,996.61
2023-03-13T06:33:49.072Z,996.61
2023-03-13T06:34:47.196Z,996.61
2023-03-13T06:35:56.257Z,996.62
2023-03-13T06:36:48.210Z,996.61
2023-03-13T06:37:47.178Z,996.58
2023-03-13T06:38:47.125Z,996.60
2023-03-13T06:39:47.147Z,996.57
2023-03-13T06:40:48.023Z,996.59
2023-03-13T06:41:47.120Z,996.59
2023-03-13T06:42:47.098Z,996.58
2023-03-13T06:43:47.105Z,996.57
2023-03-13T06:44:47.116Z,996.55
2023-03-13T06:45:47.102Z,996.49
2023-03-13T06:46:47.128Z,996.49
2023-03-13T06:47:47.074Z,996.49
2023-03-13T06:48:47.036Z,996.47
2023-03-13T06:49:47.054Z,996.43
2023-03-13T06:50:47.054Z,996.40
2023-03-13T06:51:47.009Z,996.45
2023-03-13T06:52:46.992Z,996.45
2023-03-13T06:53:46.997Z,996.38
2023-03-13T06:54:46.972Z,996.35
2023-03-13T06:55:46.995Z,996.36
2023-03-13T06:56:46.963Z,996.28
2023-03-13T06:57:46.938Z,996.29
2023-03-13T06:58:46.930Z,996.31
2023-03-13T06:59:46.930Z,996.33
2023-03-13T07:00:46.946Z,996.29
2023-03-13T07:01:46.910Z,996.27
2023-03-13T07:02:46.889Z,996.27
2023-03-13T07:03:46.913Z,996.28
2023-03-13T07:04:46.865Z,996.24
2023-03-13T07:05:46.873Z,996.19
2023-03-13T07:06:46.840Z,996.10
2023-03-13T07:07:46.844Z,996.12
2023-03-13T07:08:46.833Z,996.08
2023-03-13T07:09:46.797Z,996.00
2023-03-13T07:10:46.821Z,996.03
2023-03-13T07:11:46.777Z,995.98
2023-03-13T07:12:46.790Z,996.01
2023-03-13T07:13:46.768Z,995.99
2023-03-13T07:14:46.766Z,995.94
2023-03-13T07:15:46.757Z,995.94
2023-03-13T07:16:46.853Z,995.93
2023-03-13T07:17:46.728Z,995.90
2023-03-13T07:18:46.712Z,995.89
2023-03-13T07:19:46.678Z,995.84
2023-03-13T07:20:46.707Z,995.89
2023-03-13T07:21:46.678Z,995.82
2023-03-13T07:22:46.666Z,995.82
2023-03-13T07:23:46.649Z,995.83
2023-03-13T07:24:46.734Z,995.85
2023-03-13T07:25:46.678Z,995.76
2023-03-13T07:27:03.878Z,995.75
2023-03-13T07:27:47.623Z,995.75
2023-03-13T07:28:46.602Z,995.75
2023-03-13T07:29:46.603Z,995.76
2023-03-13T07:30:46.626Z,995.77
2023-03-13T07:31:46.619Z,995.72
2023-03-13T07:32:46.606Z,995.71
2023-03-13T07:33:46.603Z,995.71
2023-03-13T07:34:46.586Z,995.78
2023-03-13T07:35:46.555Z,995.69
2023-03-13T07:36:46.539Z,995.77
2023-03-13T07:37:46.500Z,995.75
2023-03-13T07:38:46.504Z,995.68
2023-03-13T07:39:46.484Z,995.69
2023-03-13T07:40:46.488Z,995.68
2023-03-13T07:41:46.443Z,995.71
2023-03-13T07:42:46.456Z,995.62
2023-03-13T07:43:46.448Z,995.60
2023-03-13T07:44:46.414Z,995.60
2023-03-13T07:45:46.625Z,995.57
2023-03-13T07:46:46.438Z,995.59
2023-03-13T07:47:46.439Z,995.52
2023-03-13T07:48:46.414Z,995.58
2023-03-13T07:49:46.388Z,995.55
2023-03-13T07:50:46.378Z,995.55
2023-03-13T07:51:46.334Z,995.53
2023-03-13T07:52:46.432Z,995.55
2023-03-13T07:53:46.351Z,995.52
2023-03-13T07:54:46.319Z,995.58
2023-03-13T07:55:46.343Z,995.55
2023-03-13T07:56:46.277Z,995.49
2023-03-13T07:57:46.265Z,995.49
2023-03-13T07:58:46.262Z,995.37
2023-03-13T07:59:46.261Z,995.49
2023-03-13T08:00:46.294Z,995.50
2023-03-13T08:01:46.226Z,995.44
2023-03-13T08:02:46.289Z,995.43
2023-03-13T08:03:46.228Z,995.46
2023-03-13T08:04:46.254Z,995.47
2023-03-13T08:05:46.229Z,995.39
2023-03-13T08:06:46.200Z,995.40
2023-03-13T08:07:46.163Z,995.41
2023-03-13T08:08:46.124Z,995.46
2023-03-13T08:09:46.188Z,995.49
2023-03-13T08:10:46.109Z,995.50
2023-03-13T08:11:46.209Z,995.49
2023-03-13T08:12:46.107Z,995.45
2023-03-13T08:13:46.066Z,995.40
2023-03-13T08:14:46.087Z,995.41
2023-03-13T08:15:46.098Z,995.41
2023-03-13T08:16:46.307Z,995.44
2023-03-13T08:17:46.023Z,995.44
2023-03-13T08:18:46.076Z,995.41
2023-03-13T08:19:46.021Z,995.43
2023-03-13T08:20:46.022Z,995.38
2023-03-13T08:21:46.022Z,995.39
2023-03-13T08:22:46.011Z,995.38
2023-03-13T08:23:45.976Z,995.43
2023-03-13T08:24:45.963Z,995.46
2023-03-13T08:25:45.938Z,995.44
2023-03-13T08:26:45.976Z,995.47
2023-03-13T08:27:45.932Z,995.39
2023-03-13T08:28:45.901Z,995.41
2023-03-13T08:29:45.886Z,995.42
2023-03-13T08:30:45.914Z,995.38
2023-03-13T08:31:45.944Z,995.41
2023-03-13T08:32:45.952Z,995.38
2023-03-13T08:33:45.854Z,995.33
2023-03-13T08:34:45.861Z,995.33
2023-03-13T08:35:45.884Z,995.38
2023-03-13T08:36:45.851Z,995.33
2023-03-13T08:37:45.821Z,995.28
2023-03-13T08:38:46.416Z,995.31
2023-03-13T08:39:45.777Z,995.27
2023-03-13T08:40:45.766Z,995.25
2023-03-13T08:41:45.776Z,995.26
2023-03-13T08:42:45.749Z,995.17
2023-03-13T08:43:45.736Z,995.16
2023-03-13T08:44:45.718Z,995.11
2023-03-13T08:45:45.783Z,995.04
2023-03-13T08:46:45.824Z,995.08
2023-03-13T08:47:45.678Z,995.02
2023-03-13T08:48:45.687Z,994.99
2023-03-13T08:49:45.688Z,994.98
2023-03-13T08:50:45.692Z,995.04
2023-03-13T08:51:45.669Z,994.98
2023-03-13T08:52:45.669Z,995.00
2023-03-13T08:53:45.648Z,994.96
2023-03-13T08:54:45.648Z,994.95
2023-03-13T08:55:45.606Z,994.96
2023-03-13T08:56:45.642Z,995.06
2023-03-13T08:57:45.606Z,994.98
2023-03-13T08:58:45.584Z,995.01
2023-03-13T08:59:45.572Z,994.96
2023-03-13T09:00:45.554Z,994.98
2023-03-13T09:01:45.605Z,994.90
2023-03-13T09:02:45.575Z,995.04
2023-03-13T09:03:45.646Z,994.98
2023-03-13T09:04:45.518Z,994.99
2023-03-13T09:05:55.745Z,994.92
2023-03-13T09:06:46.516Z,994.94
2023-03-13T09:07:45.482Z,994.89
2023-03-13T09:08:45.483Z,994.91
2023-03-13T09:09:45.463Z,994.97
2023-03-13T09:10:45.447Z,994.89
2023-03-13T09:11:45.469Z,994.93
2023-03-13T09:12:45.415Z,994.91
2023-03-13T09:13:45.401Z,994.85
2023-03-13T09:14:45.413Z,994.83
2023-03-13T09:15:45.443Z,994.80
2023-03-13T09:16:45.373Z,994.76
2023-03-13T09:17:45.400Z,994.81
2023-03-13T09:18:45.392Z,994.85
2023-03-13T09:19:57.843Z,994.75
2023-03-13T09:20:48.034Z,994.84
2023-03-13T09:21:45.320Z,994.68
2023-03-13T09:22:45.344Z,994.64
2023-03-13T09:23:45.303Z,994.70
2023-03-13T09:24:45.312Z,994.75
2023-03-13T09:25:45.286Z,994.77
2023-03-13T09:27:00.159Z,994.77
2023-03-13T09:27:46.312Z,994.78
2023-03-13T09:28:45.255Z,994.69
2023-03-13T09:29:45.241Z,994.68
2023-03-13T09:30:45.284Z,994.65
2023-03-13T09:31:45.227Z,994.67
2023-03-13T09:32:45.331Z,994.62
2023-03-13T09:33:45.210Z,994.72
2023-03-13T09:34:45.189Z,994.71
2023-03-13T09:35:45.177Z,994.67
2023-03-13T09:36:45.149Z,994.66
2023-03-13T09:37:45.168Z,994.69
2023-03-13T09:38:45.178Z,994.70
2023-03-13T09:39:45.118Z,994.70
2023-03-13T09:40:56.494Z,994.76
2023-03-13T09:41:46.091Z,994.74
2023-03-13T09:42:45.070Z,994.72
2023-03-13T09:43:45.080Z,994.59
2023-03-13T09:44:45.045Z,994.63
2023-03-13T09:45:45.053Z,994.63
2023-03-13T09:46:45.140Z,994.61
2023-03-13T09:47:45.048Z,994.62
2023-03-13T09:48:45.076Z,994.59
2023-03-13T09:49:45.011Z,994.55
2023-03-13T09:50:45.027Z,994.55
2023-03-13T09:51:44.961Z,994.52
2023-03-13T09:52:44.976Z,994.49
2023-03-13T09:53:44.956Z,994.54
2023-03-13T09:54:44.991Z,994.53
2023-03-13T09:55:44.933Z,994.50
2023-03-13T09:56:44.949Z,994.48
2023-03-13T09:57:44.945Z,994.39
2023-03-13T09:58:44.887Z,994.35
2023-03-13T09:59:44.912Z,994.39
2023-03-13T10:00:44.889Z,994.40
2023-03-13T10:01:44.981Z,994.36
2023-03-13T10:02:44.843Z,994.37
2023-03-13T10:03:44.874Z,994.39
2023-03-13T10:04:44.888Z,994.35
2023-03-13T10:05:44.819Z,994.37
2023-03-13T10:06:44.819Z,994.41
2023-03-13T10:07:44.819Z,994.39
2023-03-13T10:08:44.784Z,994.34
2023-03-13T10:09:44.951Z,994.43
2023-03-13T10:10:44.772Z,994.37
2023-03-13T10:11:44.784Z,994.42
2023-03-13T10:12:44.730Z,994.50
2023-03-13T10:13:44.724Z,994.50
2023-03-13T10:14:44.745Z,994.48
2023-03-13T10:15:44.754Z,994.55
2023-03-13T10:16:44.697Z,994.55
2023-03-13T10:17:44.709Z,994.55
2023-03-13T10:18:44.680Z,994.60
2023-03-13T10:19:44.703Z,994.54
2023-03-13T10:20:44.648Z,994.56
2023-03-13T10:21:44.627Z,994.54
2023-03-13T10:22:44.630Z,994.60
2023-03-13T10:23:44.630Z,994.60
2023-03-13T10:24:44.633Z,994.54
2023-03-13T10:25:44.592Z,994.57
2023-03-13T10:26:44.579Z,994.54
2023-03-13T10:27:44.584Z,994.52
2023-03-13T10:28:44.575Z,994.53
2023-03-13T10:29:44.592Z,994.49
2023-03-13T10:30:44.527Z,994.43
2023-03-13T10:31:44.641Z,994.41
2023-03-13T10:32:44.553Z,994.48
2023-03-13T10:33:44.522Z,994.42
2023-03-13T10:34:44.567Z,994.44
2023-03-13T10:35:44.537Z,994.46
2023-03-13T10:36:44.477Z,994.48
2023-03-13T10:37:44.465Z,994.45
2023-03-13T10:38:44.444Z,994.47
2023-03-13T10:39:44.532Z,994.45
2023-03-13T10:40:44.396Z,994.51
2023-03-13T10:41:44.455Z,994.48
2023-03-13T10:42:44.368Z,994.45
2023-03-13T10:43:44.370Z,994.47
2023-03-13T10:44:44.400Z,994.50
2023-03-13T10:45:44.359Z,994.48
2023-03-13T10:46:44.440Z,994.51
2023-03-13T10:47:44.354Z,994.50
2023-03-13T10:48:44.332Z,994.46
2023-03-13T10:49:44.368Z,994.45
2023-03-13T10:50:44.320Z,994.36
2023-03-13T10:51:44.293Z,994.42
2023-03-13T10:52:44.288Z,994.38
2023-03-13T10:53:44.275Z,994.44
2023-03-13T10:54:44.292Z,994.46
2023-03-13T10:55:44.242Z,994.41
2023-03-13T10:56:44.229Z,994.37
2023-03-13T10:57:44.240Z,994.36
2023-03-13T10:58:44.219Z,994.29
2023-03-13T10:59:44.252Z,994.38
2023-03-13T11:00:44.197Z,994.33
2023-03-13T11:01:44.193Z,994.37
2023-03-13T11:02:44.362Z,994.35
2023-03-13T11:03:44.221Z,994.34
2023-03-13T11:04:44.178Z,994.25
2023-03-13T11:05:44.146Z,994.20
2023-03-13T11:06:44.113Z,994.24
2023-03-13T11:07:44.106Z,994.24
2023-03-13T11:08:44.115Z,994.33
2023-03-13T11:09:44.192Z,994.31
2023-03-13T11:10:44.069Z,994.21
2023-03-13T11:11:44.111Z,994.25
2023-03-13T11:12:44.048Z,994.29
2023-03-13T11:13:44.031Z,994.18
2023-03-13T11:14:44.069Z,994.21
2023-03-13T11:15:44.005Z,994.19
2023-03-13T11:16:44.041Z,994.18
2023-03-13T11:17:44.010Z,994.25
2023-03-13T11:18:43.989Z,994.22
2023-03-13T11:19:44.029Z,994.11
2023-03-13T11:20:43.955Z,994.11
2023-03-13T11:21:43.981Z,994.05
2023-03-13T11:22:43.926Z,994.11
2023-03-13T11:23:43.952Z,994.10
2023-03-13T11:24:43.946Z,994.06
2023-03-13T11:25:43.916Z,994.01
2023-03-13T11:26:55.104Z,993.93
2023-03-13T11:27:44.901Z,993.87
2023-03-13T11:28:43.868Z,993.90
2023-03-13T11:29:43.938Z,993.90
2023-03-13T11:30:43.862Z,993.85
2023-03-13T11:31:43.923Z,993.85
2023-03-13T11:32:43.845Z,993.87
2023-03-13T11:33:43.819Z,993.88
2023-03-13T11:34:43.824Z,993.81
2023-03-13T11:35:43.892Z,993.81
2023-03-13T11:36:43.780Z,993.75
2023-03-13T11:37:43.783Z,993.73
2023-03-13T11:38:43.754Z,993.70
2023-03-13T11:39:43.759Z,993.70
2023-03-13T11:40:43.789Z,993.69
2023-03-13T11:41:43.786Z,993.70
2023-03-13T11:42:43.747Z,993.62
2023-03-13T11:43:43.688Z,993.55
2023-03-13T11:44:43.680Z,993.52
2023-03-13T11:45:43.749Z,993.57
2023-03-13T11:46:43.819Z,993.56
2023-03-13T11:47:43.663Z,993.49
2023-03-13T11:48:43.661Z,993.43
2023-03-13T11:49:43.632Z,993.43
2023-03-13T11:50:43.665Z,993.37
2023-03-13T11:51:43.651Z,993.44
2023-03-13T11:52:43.601Z,993.37
2023-03-13T11:53:43.580Z,993.37
2023-03-13T11:54:43.583Z,993.44
2023-03-13T11:55:43.629Z,993.36
2023-03-13T11:56:43.546Z,993.41
2023-03-13T11:57:43.538Z,993.31
2023-03-13T11:58:43.536Z,993.31
2023-03-13T11:59:43.515Z,993.33
2023-03-13T12:00:43.591Z,993.27
2023-03-13T12:01:45.522Z,993.23
2023-03-13T12:02:43.548Z,993.19
2023-03-13T12:03:43.567Z,993.22
2023-03-13T12:04:43.656Z,993.16
2023-03-13T12:05:43.501Z,993.20
2023-03-13T12:06:43.424Z,993.21
2023-03-13T12:07:43.433Z,993.17
2023-03-13T12:08:43.406Z,993.19
2023-03-13T12:09:43.423Z,993.23
2023-03-13T12:10:43.428Z,993.18
2023-03-13T12:11:43.373Z,993.12
2023-03-13T12:12:43.383Z,993.08
2023-03-13T12:13:43.365Z,993.05
2023-03-13T12:14:43.331Z,993.02
2023-03-13T12:15:43.362Z,992.99
2023-03-13T12:16:43.380Z,992.92
2023-03-13T12:17:43.523Z,992.80
2023-03-13T12:18:43.298Z,992.82
2023-03-13T12:19:43.299Z,992.87
2023-03-13T12:20:43.316Z,992.87
2023-03-13T12:21:43.344Z,992.94
2023-03-13T12:22:43.238Z,992.94
2023-03-13T12:23:43.294Z,992.87
2023-03-13T12:24:43.244Z,992.84
2023-03-13T12:25:43.304Z,992.87
2023-03-13T12:26:43.272Z,992.81
2023-03-13T12:27:43.214Z,992.81
2023-03-13T12:28:43.174Z,992.81